createdAt,value
2022-10-13T00:00:24.803Z,7.94
2022-10-13T00:05:24.722Z,7.99
2022-10-13T00:10:24.668Z,7.99
2022-10-13T00:15:24.588Z,8.00
2022-10-13T00:20:24.520Z,7.93
2022-10-13T00:25:24.445Z,7.89
2022-10-13T00:30:24.381Z,7.79
2022-10-13T00:35:24.337Z,7.72
2022-10-13T00:40:24.285Z,7.78
2022-10-13T00:45:24.243Z,7.71
2022-10-13T00:50:24.195Z,7.77
2022-10-13T00:55:24.065Z,7.72
2022-10-13T01:00:23.989Z,7.71
2022-10-13T01:05:23.935Z,7.63
2022-10-13T01:10:23.887Z,7.58
2022-10-13T01:15:23.797Z,7.77
2022-10-13T01:20:23.761Z,7.97
2022-10-13T01:25:23.702Z,7.93
2022-10-13T01:30:23.597Z,7.94
2022-10-13T01:35:23.635Z,8.08
2022-10-13T01:40:23.459Z,8.20
2022-10-13T01:45:23.410Z,8.48
2022-10-13T01:50:23.377Z,8.47
2022-10-13T01:55:23.289Z,8.39
2022-10-13T02:00:23.289Z,8.40
2022-10-13T02:05:23.129Z,8.53
2022-10-13T02:10:23.276Z,8.48
2022-10-13T02:15:23.047Z,8.28
2022-10-13T02:20:22.975Z,8.30
2022-10-13T02:25:22.930Z,8.25
2022-10-13T02:30:22.820Z,8.20
2022-10-13T02:35:22.769Z,8.15
2022-10-13T02:40:22.704Z,8.17
2022-10-13T02:45:22.609Z,8.22
2022-10-13T02:50:22.579Z,8.33
2022-10-13T02:55:22.498Z,8.32
2022-10-13T03:00:22.427Z,8.30
2022-10-13T03:05:22.373Z,8.37
2022-10-13T03:10:22.326Z,8.45
2022-10-13T03:15:22.439Z,8.37
2022-10-13T03:20:22.183Z,8.39
2022-10-13T03:25:22.102Z,8.28
2022-10-13T03:30:22.052Z,8.17
2022-10-13T03:35:21.990Z,7.99
2022-10-13T03:40:21.916Z,7.99
2022-10-13T03:45:21.880Z,8.04
2022-10-13T03:50:21.782Z,8.04
2022-10-13T03:55:22.179Z,8.20
2022-10-13T04:00:21.660Z,8.33
2022-10-13T04:05:21.567Z,8.53
2022-10-13T04:10:21.506Z,8.58
2022-10-13T04:15:21.481Z,8.79
2022-10-13T04:20:21.418Z,8.97
2022-10-13T04:25:21.296Z,9.02
2022-10-13T04:30:21.275Z,8.99
2022-10-13T04:35:21.168Z,8.91
2022-10-13T04:40:21.144Z,8.91
2022-10-13T04:45:21.043Z,8.99
2022-10-13T04:50:21.001Z,9.12
2022-10-13T04:55:20.933Z,9.12
2022-10-13T05:00:20.854Z,9.02
2022-10-13T05:05:20.867Z,9.10
2022-10-13T05:10:20.706Z,9.13
2022-10-13T05:15:20.664Z,9.10
2022-10-13T05:20:20.764Z,9.15
2022-10-13T05:25:20.669Z,9.34
2022-10-13T05:30:20.481Z,9.57
2022-10-13T05:35:20.416Z,9.60
2022-10-13T05:40:20.341Z,9.82
2022-10-13T05:45:20.273Z,9.99
2022-10-13T05:50:20.215Z,10.22
2022-10-13T05:55:20.130Z,10.47
2022-10-13T06:00:20.080Z,10.58
2022-10-13T06:05:19.981Z,10.84
2022-10-13T06:10:20.015Z,11.03
2022-10-13T06:15:22.327Z,11.52
2022-10-13T06:20:19.796Z,11.72
2022-10-13T06:25:19.704Z,11.49
2022-10-13T06:30:19.852Z,11.31
2022-10-13T06:35:19.605Z,11.09
2022-10-13T06:40:19.632Z,10.94
2022-10-13T06:45:19.443Z,10.95
2022-10-13T06:50:19.405Z,11.11
2022-10-13T06:55:19.397Z,11.89
2022-10-13T07:00:26.374Z,12.60
2022-10-13T07:05:19.180Z,13.15
2022-10-13T07:10:19.103Z,13.71
2022-10-13T07:15:19.052Z,13.59
2022-10-13T07:20:19.156Z,14.17
2022-10-13T07:25:18.936Z,15.08
2022-10-13T07:30:18.899Z,15.31
2022-10-13T07:35:18.795Z,14.91
2022-10-13T07:40:18.713Z,14.86
2022-10-13T07:45:18.683Z,14.78
2022-10-13T07:50:18.570Z,14.98
2022-10-13T07:55:18.504Z,15.67
2022-10-13T08:00:18.465Z,16.14
2022-10-13T08:05:18.365Z,16.42
2022-10-13T08:10:18.308Z,16.65
2022-10-13T08:15:18.246Z,16.16
2022-10-13T08:20:18.157Z,15.97
2022-10-13T08:25:18.098Z,16.04
2022-10-13T08:30:18.137Z,16.27
2022-10-13T08:35:17.990Z,16.18
2022-10-13T08:40:18.165Z,16.25
2022-10-13T08:50:18.821Z,15.89
2022-10-13T08:55:17.740Z,15.96
2022-10-13T09:00:17.651Z,15.85
2022-10-13T09:05:17.594Z,15.79
2022-10-13T09:10:17.532Z,15.85
2022-10-13T09:15:17.456Z,15.96
2022-10-13T09:20:17.408Z,15.88
2022-10-13T09:25:17.304Z,15.92
2022-10-13T09:30:17.234Z,16.06
2022-10-13T09:35:17.179Z,16.27
2022-10-13T09:40:17.117Z,16.55
2022-10-13T09:45:17.276Z,16.58
2022-10-13T09:50:16.990Z,16.86
2022-10-13T09:55:16.928Z,17.30
2022-10-13T10:00:16.834Z,17.63
2022-10-13T10:05:16.782Z,17.59
2022-10-13T10:10:16.739Z,17.36
2022-10-13T10:15:16.634Z,17.62
2022-10-13T10:20:16.596Z,17.88
2022-10-13T10:25:16.547Z,17.95
2022-10-13T10:30:16.421Z,18.24
2022-10-13T10:35:16.360Z,18.59
2022-10-13T10:40:16.328Z,18.62
2022-10-13T10:45:16.261Z,18.61
2022-10-13T10:50:16.182Z,18.59
2022-10-13T10:55:16.173Z,18.65
2022-10-13T11:00:16.079Z,18.74
2022-10-13T11:05:16.014Z,18.83
2022-10-13T11:10:15.905Z,18.72
2022-10-13T11:15:15.858Z,18.79
2022-10-13T11:20:15.766Z,18.94
2022-10-13T11:25:15.714Z,19.15
2022-10-13T11:30:15.646Z,19.20
2022-10-13T11:35:15.590Z,19.14
2022-10-13T11:40:15.507Z,19.32
2022-10-13T11:45:15.445Z,19.18
2022-10-13T11:50:15.392Z,19.29
2022-10-13T11:55:15.327Z,19.20
2022-10-13T12:00:15.238Z,19.46
2022-10-13T12:05:15.169Z,19.72
2022-10-13T12:10:15.143Z,20.00
2022-10-13T12:15:15.125Z,19.88
2022-10-13T12:20:14.968Z,20.00
2022-10-13T12:25:14.943Z,20.02
2022-10-13T12:30:14.832Z,20.12
2022-10-13T12:35:14.814Z,20.12
2022-10-13T12:40:14.731Z,20.38
2022-10-13T12:45:14.633Z,20.53
2022-10-13T12:50:14.635Z,20.51
2022-10-13T12:55:14.523Z,20.54
2022-10-13T13:00:14.614Z,20.51
2022-10-13T13:05:14.376Z,20.64
2022-10-13T13:10:14.328Z,20.77
2022-10-13T13:15:14.255Z,20.62
2022-10-13T13:20:14.198Z,20.42
2022-10-13T13:25:14.135Z,20.10
2022-10-13T13:30:14.050Z,19.73
2022-10-13T13:35:14.114Z,19.66
2022-10-13T13:40:13.898Z,19.70
2022-10-13T13:45:13.839Z,19.70
2022-10-13T13:50:13.773Z,19.79
2022-10-13T13:55:13.701Z,19.80
2022-10-13T14:00:13.638Z,19.90
2022-10-13T14:05:13.702Z,19.94
2022-10-13T14:10:13.518Z,20.05
2022-10-13T14:15:13.492Z,20.00
2022-10-13T14:20:13.376Z,19.94
2022-10-13T14:25:13.352Z,19.94
2022-10-13T14:30:13.232Z,19.79
2022-10-13T14:35:13.186Z,19.40
2022-10-13T14:40:21.593Z,19.06
2022-10-13T14:45:13.026Z,18.64
2022-10-13T14:50:12.975Z,18.42
2022-10-13T14:55:12.914Z,18.33
2022-10-13T15:00:12.840Z,18.21
2022-10-13T15:05:12.766Z,17.99
2022-10-13T15:10:12.866Z,17.91
2022-10-13T15:15:12.627Z,17.91
2022-10-13T15:20:12.548Z,17.91
2022-10-13T15:25:12.487Z,17.73
2022-10-13T15:30:12.428Z,17.57
2022-10-13T15:35:12.357Z,17.33
2022-10-13T15:40:12.308Z,17.13
2022-10-13T15:45:12.295Z,17.04
2022-10-13T15:50:12.161Z,16.89
2022-10-13T15:55:12.114Z,16.70
2022-10-13T16:00:12.030Z,16.50
2022-10-13T16:05:11.987Z,16.40
2022-10-13T16:10:11.901Z,16.20
2022-10-13T16:15:12.061Z,16.04
2022-10-13T16:20:11.795Z,15.96
2022-10-13T16:25:12.044Z,15.94
2022-10-13T16:30:11.653Z,15.85
2022-10-13T16:35:11.558Z,15.84
2022-10-13T16:40:11.507Z,15.81
2022-10-13T16:45:11.502Z,15.60
2022-10-13T16:50:11.406Z,15.46
2022-10-13T16:55:11.456Z,15.31
2022-10-13T17:00:11.243Z,15.11
2022-10-13T17:05:11.167Z,14.93
2022-10-13T17:10:11.169Z,14.80
2022-10-13T17:15:11.106Z,14.84
2022-10-13T17:20:11.274Z,14.84
2022-10-13T17:25:11.092Z,14.68
2022-10-13T17:30:10.887Z,14.60
2022-10-13T17:35:11.004Z,14.50
2022-10-13T17:40:10.686Z,14.50
2022-10-13T17:45:10.647Z,14.43
2022-10-13T17:50:10.575Z,14.31
2022-10-13T17:55:10.625Z,14.14
2022-10-13T18:00:10.720Z,14.06
2022-10-13T18:05:10.367Z,13.98
2022-10-13T18:10:10.320Z,13.87
2022-10-13T18:15:10.244Z,13.84
2022-10-13T18:20:10.257Z,13.89
2022-10-13T18:25:10.336Z,13.99
2022-10-13T18:30:10.098Z,13.96
2022-10-13T18:35:10.036Z,14.01
2022-10-13T18:40:09.934Z,14.06
2022-10-13T18:45:09.899Z,14.01
2022-10-13T18:50:09.826Z,13.99
2022-10-13T18:55:09.702Z,14.01
2022-10-13T19:00:09.683Z,13.95
2022-10-13T19:05:09.625Z,13.92
2022-10-13T19:10:09.508Z,13.89
2022-10-13T19:15:09.618Z,13.83
2022-10-13T19:20:09.502Z,13.71
2022-10-13T19:25:09.408Z,13.38
2022-10-13T19:30:09.480Z,13.07
2022-10-13T19:35:09.203Z,12.99
2022-10-13T19:40:09.149Z,12.87
2022-10-13T19:45:09.131Z,12.88
2022-10-13T19:50:08.989Z,12.69
2022-10-13T19:55:08.896Z,12.63
2022-10-13T20:00:08.882Z,12.60
2022-10-13T20:05:08.770Z,12.51
2022-10-13T20:10:16.894Z,12.44
2022-10-13T20:15:08.632Z,12.48
2022-10-13T20:20:08.553Z,12.41
2022-10-13T20:25:08.502Z,12.26
2022-10-13T20:30:08.410Z,12.19
2022-10-13T20:35:08.541Z,11.93
2022-10-13T20:40:08.291Z,11.83
2022-10-13T20:45:08.238Z,11.80
2022-10-13T20:50:08.168Z,11.70
2022-10-13T20:55:08.110Z,11.59
2022-10-13T21:00:08.101Z,11.56
2022-10-13T21:05:08.003Z,11.57
2022-10-13T21:10:07.939Z,11.67
2022-10-13T21:15:08.242Z,11.72
2022-10-13T21:20:08.247Z,11.74
2022-10-13T21:25:07.793Z,11.83
2022-10-13T21:30:07.642Z,11.78
2022-10-13T21:35:07.612Z,11.67
2022-10-13T21:40:07.582Z,11.52
2022-10-13T21:45:07.479Z,11.39
2022-10-13T21:50:07.371Z,11.34
2022-10-13T21:55:07.315Z,11.34
2022-10-13T22:00:07.223Z,11.27
2022-10-13T22:05:07.161Z,11.17
2022-10-13T22:10:07.100Z,11.14
2022-10-13T22:15:07.034Z,11.16
2022-10-13T22:20:06.972Z,10.96
2022-10-13T22:25:07.142Z,10.89
2022-10-13T22:30:06.837Z,10.83
2022-10-13T22:35:06.771Z,10.78
2022-10-13T22:40:06.722Z,10.81
2022-10-13T22:45:06.832Z,10.96
2022-10-13T22:50:06.566Z,11.02
2022-10-13T22:55:06.522Z,11.14
2022-10-13T23:00:06.713Z,11.27
2022-10-13T23:05:06.399Z,11.14
2022-10-13T23:10:06.346Z,11.13
2022-10-13T23:15:06.297Z,10.98
2022-10-13T23:20:06.175Z,10.84
2022-10-13T23:25:06.124Z,10.74
2022-10-13T23:30:06.035Z,10.77
2022-10-13T23:35:05.961Z,10.70
2022-10-13T23:40:05.902Z,10.63
2022-10-13T23:45:05.836Z,10.47
2022-10-13T23:50:05.963Z,10.40
2022-10-13T23:55:05.745Z,10.34
